createdAt,value
2023-04-21T00:01:01.218Z,54.6923
2023-04-21T00:02:02.954Z,55.6154
2023-04-21T00:03:04.685Z,61.2308
2023-04-21T00:04:06.275Z,58.6923
2023-04-21T00:05:07.997Z,56.6923
2023-04-21T00:06:09.484Z,54.6923
2023-04-21T00:07:11.125Z,54.6154
2023-04-21T00:08:12.706Z,56.0000
2023-04-21T00:09:14.361Z,55.9231
2023-04-21T00:10:15.998Z,50.0000
2023-04-21T00:11:17.756Z,44.7692
2023-04-21T00:12:19.393Z,36.8462
2023-04-21T00:13:20.954Z,38.5385
2023-04-21T00:14:22.640Z,37.1538
2023-04-21T00:15:25.196Z,38.3077
2023-04-21T00:16:26.340Z,41.3077
2023-04-21T00:17:27.611Z,47.2308
2023-04-21T00:18:29.222Z,50.2308
2023-04-21T00:19:30.873Z,51.5385
2023-04-21T00:20:33.254Z,46.0769
2023-04-21T00:21:34.882Z,52.4615
2023-04-21T00:22:35.847Z,50.3846
2023-04-21T00:23:37.490Z,47.9231
2023-04-21T00:24:39.125Z,45.3077
2023-04-21T00:25:40.776Z,42.1538
2023-04-21T00:26:42.471Z,39.3077
2023-04-21T00:27:44.260Z,35.0000
2023-04-21T00:28:45.687Z,34.4615
2023-04-21T00:29:48.137Z,35.4615
2023-04-21T00:30:49.094Z,36.9231
2023-04-21T00:31:50.784Z,40.0000
2023-04-21T00:32:52.425Z,43.3846
2023-04-21T00:33:53.993Z,50.0769
2023-04-21T00:34:55.641Z,41.9231
2023-04-21T00:35:57.253Z,48.4615
2023-04-21T00:36:58.897Z,48.4615
2023-04-21T00:38:00.605Z,41.9231
2023-04-21T00:39:02.158Z,38.0000
2023-04-21T00:40:03.833Z,37.3077
2023-04-21T00:41:05.507Z,33.4615
2023-04-21T00:42:07.203Z,35.0000
2023-04-21T00:43:08.850Z,33.3846
2023-04-21T00:44:10.405Z,31.4615
2023-04-21T00:45:12.089Z,33.4615
2023-04-21T00:46:13.710Z,32.6923
2023-04-21T00:47:15.405Z,40.4615
2023-04-21T00:48:17.075Z,38.0000
2023-04-21T00:49:18.969Z,39.3077
2023-04-21T00:50:20.324Z,41.0769
2023-04-21T00:51:22.000Z,42.6154
2023-04-21T00:52:23.809Z,47.6154
2023-04-21T00:53:25.813Z,52.5385
2023-04-21T00:54:26.991Z,46.4615
2023-04-21T00:55:28.571Z,43.6923
2023-04-21T00:56:30.194Z,46.7692
2023-04-21T00:57:31.885Z,48.1538
2023-04-21T00:58:33.765Z,40.3846
2023-04-21T00:59:35.319Z,35.8462
2023-04-21T01:00:36.823Z,32.8462
2023-04-21T01:01:38.432Z,31.0769
2023-04-21T01:02:40.288Z,31.7692
2023-04-21T01:03:41.976Z,33.8462
2023-04-21T01:04:43.437Z,38.6923
2023-04-21T01:05:45.062Z,37.6154
2023-04-21T01:06:46.673Z,35.3077
2023-04-21T01:07:48.352Z,40.3077
2023-04-21T01:08:49.991Z,43.8462
2023-04-21T01:09:51.695Z,46.0769
2023-04-21T01:10:53.758Z,49.4615
2023-04-21T01:11:54.962Z,45.3077
2023-04-21T01:12:56.598Z,50.6923
2023-04-21T01:13:58.251Z,50.2308
2023-04-21T01:15:00.004Z,49.6923
2023-04-21T01:16:01.579Z,45.7692
2023-04-21T01:17:03.438Z,42.6154
2023-04-21T01:18:04.920Z,37.8462
2023-04-21T01:19:06.494Z,36.6923
2023-04-21T01:20:08.169Z,37.3077
2023-04-21T01:21:09.816Z,37.4615
2023-04-21T01:22:11.393Z,38.4615
2023-04-21T01:23:13.084Z,45.7692
2023-04-21T01:24:14.696Z,39.0000
2023-04-21T01:25:16.404Z,42.6923
2023-04-21T01:26:18.844Z,47.5385
2023-04-21T01:27:19.584Z,46.4615
2023-04-21T01:28:21.242Z,44.6923
2023-04-21T01:29:22.887Z,50.7692
2023-04-21T01:30:24.717Z,51.6923
2023-04-21T01:31:26.290Z,56.5385
2023-04-21T01:32:27.888Z,58.3077
2023-04-21T01:33:29.484Z,52.6923
2023-04-21T01:34:31.075Z,58.1538
2023-04-21T01:35:33.861Z,56.6154
2023-04-21T01:36:35.286Z,58.7692
2023-04-21T01:37:36.077Z,53.0769
2023-04-21T01:38:37.728Z,49.9231
2023-04-21T01:39:39.393Z,46.0769
2023-04-21T01:40:41.084Z,41.6923
2023-04-21T01:41:42.758Z,44.4615
2023-04-21T01:42:44.293Z,48.6154
2023-04-21T01:43:46.040Z,47.0769
2023-04-21T01:44:47.803Z,47.9231
2023-04-21T01:45:49.492Z,50.1538
2023-04-21T01:46:52.057Z,55.3846
2023-04-21T01:47:53.861Z,51.7692
2023-04-21T01:48:54.248Z,56.1538
2023-04-21T01:49:55.978Z,61.0769
2023-04-21T01:50:57.607Z,60.6923
2023-04-21T01:51:59.337Z,64.0769
2023-04-21T01:53:00.912Z,60.0000
2023-04-21T01:54:02.625Z,60.6154
2023-04-21T01:55:04.160Z,63.1538
2023-04-21T01:56:05.879Z,60.2308
2023-04-21T01:57:07.703Z,58.4615
2023-04-21T01:58:09.246Z,59.2308
2023-04-21T01:59:10.747Z,53.2308
2023-04-21T02:00:12.479Z,51.7692
2023-04-21T02:01:14.160Z,47.9231
2023-04-21T02:02:15.910Z,51.6154
2023-04-21T02:03:17.716Z,55.7692
2023-04-21T02:04:19.204Z,52.8462
2023-04-21T02:05:20.732Z,58.3846
2023-04-21T02:06:22.339Z,65.6923
2023-04-21T02:07:24.038Z,63.5385
2023-04-21T02:08:25.839Z,64.4615
2023-04-21T02:09:27.255Z,66.1538
2023-04-21T02:10:28.948Z,64.6154
2023-04-21T02:11:30.547Z,63.0000
2023-04-21T02:12:32.289Z,59.7692
2023-04-21T02:13:34.885Z,60.0000
2023-04-21T02:14:35.517Z,56.8462
2023-04-21T02:15:37.259Z,50.2308
2023-04-21T02:16:38.927Z,46.3077
2023-04-21T02:17:40.608Z,49.9231
2023-04-21T02:18:42.146Z,50.3077
2023-04-21T02:19:43.738Z,56.5385
2023-04-21T02:20:45.410Z,60.1538
2023-04-21T02:21:46.987Z,60.3846
2023-04-21T02:22:48.866Z,67.0000
2023-04-21T02:23:50.429Z,68.0769
2023-04-21T02:24:51.989Z,64.7692
2023-04-21T02:25:53.664Z,63.3077
2023-04-21T02:26:55.315Z,67.1538
2023-04-21T02:27:57.058Z,65.2308
2023-04-21T02:28:58.683Z,59.9231
2023-04-21T02:30:00.207Z,54.8462
2023-04-21T02:31:01.932Z,53.2308
2023-04-21T02:32:14.276Z,52.0769
2023-04-21T02:33:05.225Z,54.0769
2023-04-21T02:34:06.886Z,50.2308
2023-04-21T02:35:08.503Z,55.6154
2023-04-21T02:36:10.099Z,52.0000
2023-04-21T02:37:11.798Z,59.6923
2023-04-21T02:38:13.474Z,57.9231
2023-04-21T02:39:15.164Z,60.3077
2023-04-21T02:40:16.726Z,65.8462
2023-04-21T02:41:18.357Z,59.5385
2023-04-21T02:42:19.989Z,63.7692
2023-04-21T02:43:21.767Z,70.2308
2023-04-21T02:44:23.374Z,70.3077
2023-04-21T02:45:24.956Z,74.3846
2023-04-21T02:46:26.685Z,73.1538
2023-04-21T02:47:28.313Z,70.6923
2023-04-21T02:48:29.908Z,68.4615
2023-04-21T02:49:31.650Z,66.0769
2023-04-21T02:50:33.170Z,67.6923
2023-04-21T02:51:34.883Z,67.3846
2023-04-21T02:52:36.477Z,65.7692
2023-04-21T02:53:38.221Z,61.3077
2023-04-21T02:54:39.836Z,54.5385
2023-04-21T02:55:41.475Z,53.4615
2023-04-21T02:56:43.071Z,59.0000
2023-04-21T02:57:44.726Z,61.6154
2023-04-21T02:58:46.446Z,62.6923
2023-04-21T02:59:48.091Z,68.0769
2023-04-21T03:00:49.751Z,66.5385
2023-04-21T03:01:51.312Z,73.3077
2023-04-21T03:02:53.139Z,70.7692
2023-04-21T03:03:54.763Z,73.3077
2023-04-21T03:04:56.354Z,73.6923
2023-04-21T03:05:58.023Z,71.6154
2023-04-21T03:06:59.534Z,71.1538
2023-04-21T03:08:01.239Z,68.1538
2023-04-21T03:09:03.867Z,65.3077
2023-04-21T03:10:04.593Z,63.0000
2023-04-21T03:11:06.240Z,60.8462
2023-04-21T03:12:07.963Z,59.6154
2023-04-21T03:13:09.521Z,58.4615
2023-04-21T03:14:11.262Z,60.9231
2023-04-21T03:15:12.944Z,61.7692
2023-04-21T03:16:14.524Z,59.6923
2023-04-21T03:17:16.141Z,64.0769
2023-04-21T03:18:17.819Z,64.3077
2023-04-21T03:19:19.744Z,63.0000
2023-04-21T03:20:21.144Z,65.6154
2023-04-21T03:21:22.777Z,62.0000
2023-04-21T03:22:24.357Z,69.3077
2023-04-21T03:23:26.062Z,70.7692
2023-04-21T03:24:27.900Z,73.1538
2023-04-21T03:25:29.383Z,76.3077
2023-04-21T03:26:30.996Z,75.0000
2023-04-21T03:27:32.680Z,75.0769
2023-04-21T03:28:34.250Z,71.7692
2023-04-21T03:29:36.002Z,75.7692
2023-04-21T03:30:37.692Z,69.1538
2023-04-21T03:31:39.346Z,74.4615
2023-04-21T03:32:40.945Z,69.2308
2023-04-21T03:33:42.570Z,67.0000
2023-04-21T03:34:44.261Z,64.0000
2023-04-21T03:35:45.924Z,62.5385
2023-04-21T03:36:47.520Z,61.6154
2023-04-21T03:37:49.108Z,61.4615
2023-04-21T03:38:50.801Z,64.0769
2023-04-21T03:39:52.505Z,66.6154
2023-04-21T03:40:54.160Z,62.7692
2023-04-21T03:41:55.709Z,71.0769
2023-04-21T03:42:57.444Z,71.3077
2023-04-21T03:43:59.086Z,74.0769
2023-04-21T03:45:00.752Z,76.0000
2023-04-21T03:46:02.459Z,74.8462
2023-04-21T03:47:03.998Z,75.9231
2023-04-21T03:48:05.714Z,71.0769
2023-04-21T03:49:07.320Z,70.7692
2023-04-21T03:50:08.983Z,71.4615
2023-04-21T03:51:10.648Z,71.5385
2023-04-21T03:52:12.253Z,66.3846
2023-04-21T03:53:13.899Z,63.5385
2023-04-21T03:54:15.504Z,63.2308
2023-04-21T03:55:17.335Z,68.8462
2023-04-21T03:56:18.826Z,72.3077
2023-04-21T03:57:20.489Z,74.2308
2023-04-21T03:58:22.071Z,84.3077
2023-04-21T03:59:23.806Z,89.1538
2023-04-21T04:00:25.504Z,90.1538
2023-04-21T04:01:28.031Z,93.3846
2023-04-21T04:02:28.822Z,90.9231
2023-04-21T04:03:30.693Z,96.3077
2023-04-21T04:04:33.191Z,101.1538
2023-04-21T04:05:33.690Z,105.0769
2023-04-21T04:06:35.403Z,108.8462
2023-04-21T04:07:37.127Z,109.8462
2023-04-21T04:08:38.680Z,113.0769
2023-04-21T04:09:40.400Z,119.3077
2023-04-21T04:10:41.999Z,119.6154
2023-04-21T04:11:43.648Z,124.5385
2023-04-21T04:12:45.281Z,126.6923
2023-04-21T04:13:46.943Z,130.3077
2023-04-21T04:14:48.561Z,130.3846
2023-04-21T04:15:50.410Z,139.3077
2023-04-21T04:16:51.891Z,140.0000
2023-04-21T04:17:53.549Z,144.6154
2023-04-21T04:18:55.178Z,147.6923
2023-04-21T04:19:56.831Z,147.1538
2023-04-21T04:20:58.532Z,151.0769
2023-04-21T04:22:00.166Z,154.0000
2023-04-21T04:23:01.722Z,160.3846
2023-04-21T04:24:03.482Z,159.6923
2023-04-21T04:25:05.055Z,160.5385
2023-04-21T04:26:06.747Z,158.4615
2023-04-21T04:27:08.414Z,159.1538
2023-04-21T04:28:10.050Z,157.9231
2023-04-21T04:29:11.662Z,159.4615
2023-04-21T04:30:13.400Z,164.5385
2023-04-21T04:31:14.963Z,170.1538
2023-04-21T04:32:16.677Z,175.0769
2023-04-21T04:33:18.331Z,179.3077
2023-04-21T04:34:20.008Z,183.9231
2023-04-21T04:35:22.557Z,188.0000
2023-04-21T04:36:23.276Z,187.3077
2023-04-21T04:37:24.860Z,186.0769
2023-04-21T04:38:26.681Z,182.5385
2023-04-21T04:39:28.223Z,189.2308
2023-04-21T04:40:29.840Z,188.5385
2023-04-21T04:41:31.459Z,187.5385
2023-04-21T04:42:33.183Z,189.7692
2023-04-21T04:43:35.925Z,192.8462
2023-04-21T04:44:36.385Z,194.0769
2023-04-21T04:45:38.059Z,191.0769
2023-04-21T04:46:39.756Z,195.9231
2023-04-21T04:47:41.326Z,198.2308
2023-04-21T04:48:43.098Z,201.4615
2023-04-21T04:49:44.614Z,203.1538
2023-04-21T04:50:47.102Z,197.6154
2023-04-21T04:51:47.905Z,199.1538
2023-04-21T04:52:49.659Z,203.0769
2023-04-21T04:53:51.243Z,207.0769
2023-04-21T04:54:53.961Z,206.2308
2023-04-21T04:55:54.491Z,205.6154
2023-04-21T04:56:56.213Z,204.0000
2023-04-21T04:57:57.868Z,208.2308
2023-04-21T04:58:59.561Z,205.3846
2023-04-21T05:00:01.235Z,206.0000
2023-04-21T05:01:02.845Z,209.6923
2023-04-21T05:02:04.676Z,211.2308
2023-04-21T05:03:06.293Z,212.0769
2023-04-21T05:04:08.018Z,218.2308
2023-04-21T05:05:09.559Z,221.2308
2023-04-21T05:06:12.405Z,217.7692
2023-04-21T05:07:12.660Z,218.8462
2023-04-21T05:08:16.480Z,221.4615
2023-04-21T05:09:15.962Z,222.3077
2023-04-21T05:10:17.700Z,226.2308
2023-04-21T05:11:19.301Z,226.0769
2023-04-21T05:12:21.957Z,227.8462
2023-04-21T05:13:22.653Z,230.5385
2023-04-21T05:14:24.207Z,229.0769
2023-04-21T05:15:25.982Z,231.7692
2023-04-21T05:16:27.665Z,230.8462
2023-04-21T05:17:29.288Z,231.0769
2023-04-21T05:18:31.692Z,231.3077
2023-04-21T05:19:32.358Z,232.2308
2023-04-21T05:20:34.181Z,231.5385
2023-04-21T05:21:35.756Z,239.0000
2023-04-21T05:22:37.446Z,235.2308
2023-04-21T05:23:42.577Z,237.3846
2023-04-21T05:24:45.332Z,238.5000
2023-04-21T05:25:47.147Z,241.5385
2023-04-21T05:26:48.685Z,236.3077
2023-04-21T05:27:50.292Z,238.9231
2023-04-21T05:28:52.120Z,236.6154
2023-04-21T05:29:53.978Z,238.8462
2023-04-21T05:30:55.304Z,240.9231
2023-04-21T05:31:57.016Z,239.2308
2023-04-21T05:32:58.625Z,240.5385
2023-04-21T05:34:00.185Z,243.1538
2023-04-21T05:35:02.027Z,250.0000
2023-04-21T05:36:03.479Z,249.5385
2023-04-21T05:37:05.255Z,245.3077
2023-04-21T05:38:06.818Z,247.6154
2023-04-21T05:39:08.530Z,250.6154
2023-04-21T05:40:10.056Z,250.6923
2023-04-21T05:41:11.688Z,253.7692
2023-04-21T05:42:13.502Z,253.5385
2023-04-21T05:43:15.111Z,251.1538
2023-04-21T05:44:16.909Z,250.8462
2023-04-21T05:45:19.250Z,254.0000
2023-04-21T05:46:20.387Z,254.6154
2023-04-21T05:47:21.903Z,254.8462
2023-04-21T05:48:23.629Z,257.6923
2023-04-21T05:49:25.007Z,255.1538
2023-04-21T05:50:26.818Z,261.2308
2023-04-21T05:51:28.267Z,276.5385
2023-04-21T05:52:29.991Z,268.8462
2023-04-21T05:53:31.557Z,260.6154
2023-04-21T05:54:33.326Z,268.4615
2023-04-21T05:55:34.832Z,265.3846
2023-04-21T05:56:36.620Z,269.6923
2023-04-21T05:57:38.112Z,271.5385
2023-04-21T05:58:39.884Z,270.2308
2023-04-21T05:59:41.413Z,272.3846
2023-04-21T06:00:43.132Z,271.0000
2023-04-21T06:01:44.692Z,268.3077
2023-04-21T06:02:46.509Z,270.3846
2023-04-21T06:03:48.297Z,272.3846
2023-04-21T06:04:51.100Z,275.2308
2023-04-21T06:05:51.256Z,276.8462
2023-04-21T06:06:52.977Z,278.6154
2023-04-21T06:07:54.598Z,281.1538
2023-04-21T06:08:57.183Z,281.5385
2023-04-21T06:09:58.040Z,282.4615
2023-04-21T06:10:59.666Z,285.0000
2023-04-21T06:12:02.200Z,285.3846
2023-04-21T06:13:03.100Z,289.5385
2023-04-21T06:14:04.560Z,287.9231
2023-04-21T06:15:06.172Z,290.4615
2023-04-21T06:16:07.913Z,289.4615
2023-04-21T06:17:09.617Z,295.6154
2023-04-21T06:18:11.114Z,294.7692
2023-04-21T06:19:13.741Z,295.5385
2023-04-21T06:20:14.463Z,297.0769
2023-04-21T06:21:16.088Z,299.0000
2023-04-21T06:22:17.832Z,297.5385
2023-04-21T06:23:19.409Z,299.0769
2023-04-21T06:24:21.021Z,302.9231
2023-04-21T06:25:23.596Z,302.3077
2023-04-21T06:26:24.454Z,303.7692
2023-04-21T06:27:25.916Z,304.3077
2023-04-21T06:28:28.557Z,300.7692
2023-04-21T06:29:29.213Z,306.0000
2023-04-21T06:30:30.982Z,305.2308
2023-04-21T06:31:32.615Z,310.4615
2023-04-21T06:32:35.158Z,311.9231
2023-04-21T06:33:35.737Z,312.0769
2023-04-21T06:34:37.456Z,310.1538
2023-04-21T06:35:39.153Z,315.4615
2023-04-21T06:36:40.727Z,315.6154
2023-04-21T06:37:42.520Z,315.5385
2023-04-21T06:38:44.023Z,313.3077
2023-04-21T06:39:45.724Z,315.0000
2023-04-21T06:40:47.344Z,319.0000
2023-04-21T06:41:49.005Z,320.4615
2023-04-21T06:42:51.668Z,321.8462
2023-04-21T06:43:52.193Z,319.0000
2023-04-21T06:44:53.981Z,326.6923
2023-04-21T06:45:55.552Z,322.3846
2023-04-21T06:46:58.159Z,324.9231
2023-04-21T06:47:58.957Z,326.0000
2023-04-21T06:49:00.498Z,326.1538
2023-04-21T06:50:02.207Z,324.0000
2023-04-21T06:51:04.812Z,330.1538
2023-04-21T06:52:05.378Z,327.7692
2023-04-21T06:53:07.093Z,333.3077
2023-04-21T06:54:08.817Z,332.3846
2023-04-21T06:55:10.257Z,330.6923
2023-04-21T06:56:11.934Z,332.4615
2023-04-21T06:57:15.392Z,337.0769
2023-04-21T06:58:15.229Z,337.3077
2023-04-21T06:59:17.098Z,336.4615
2023-04-21T07:00:18.564Z,337.3077
2023-04-21T07:01:20.224Z,341.6154
2023-04-21T07:02:21.874Z,342.0769
2023-04-21T07:03:23.557Z,339.1538
2023-04-21T07:04:25.130Z,339.3846
2023-04-21T07:05:26.750Z,344.2308
2023-04-21T07:06:28.340Z,346.1538
2023-04-21T07:07:30.098Z,343.2308
2023-04-21T07:08:31.798Z,342.8462
2023-04-21T07:09:33.366Z,341.3077
2023-04-21T07:10:35.932Z,346.1538
2023-04-21T07:11:36.586Z,345.5385
2023-04-21T07:12:38.334Z,344.2308
2023-04-21T07:13:39.982Z,347.3077
2023-04-21T07:14:41.666Z,349.3846
2023-04-21T07:15:43.258Z,348.9231
2023-04-21T07:16:45.021Z,350.4615
2023-04-21T07:17:46.633Z,352.7692
2023-04-21T07:18:48.304Z,356.6923
2023-04-21T07:19:50.525Z,356.9231
2023-04-21T07:20:51.478Z,355.0000
2023-04-21T07:21:53.179Z,357.0000
2023-04-21T07:22:54.879Z,362.3846
2023-04-21T07:23:56.529Z,359.5385
2023-04-21T07:24:58.138Z,359.9231
2023-04-21T07:25:59.790Z,363.1538
2023-04-21T07:27:01.403Z,362.9231
2023-04-21T07:28:03.585Z,365.2308
2023-04-21T07:29:04.736Z,365.2308
2023-04-21T07:30:06.410Z,365.3077
2023-04-21T07:31:07.997Z,368.0000
2023-04-21T07:32:09.652Z,368.8462
2023-04-21T07:33:11.372Z,367.1538
2023-04-21T07:34:13.020Z,370.9231
2023-04-21T07:35:14.574Z,375.2308
2023-04-21T07:36:16.256Z,374.3077
2023-04-21T07:37:17.906Z,377.6154
2023-04-21T07:38:19.578Z,379.8462
2023-04-21T07:39:21.647Z,379.7692
2023-04-21T07:40:22.877Z,380.2308
2023-04-21T07:41:24.453Z,383.8462
2023-04-21T07:42:26.159Z,384.3846
2023-04-21T07:43:27.849Z,388.0000
2023-04-21T07:44:29.509Z,387.9231
2023-04-21T07:45:31.023Z,390.3077
2023-04-21T07:46:32.790Z,392.0769
2023-04-21T07:47:34.380Z,393.2308
2023-04-21T07:48:36.981Z,391.0769
2023-04-21T07:49:37.718Z,396.1538
2023-04-21T07:50:39.321Z,394.4615
2023-04-21T07:51:40.978Z,394.4615
2023-04-21T07:52:42.633Z,396.5385
2023-04-21T07:53:44.312Z,397.4615
2023-04-21T07:54:45.979Z,396.5385
2023-04-21T07:55:47.527Z,395.7692
2023-04-21T07:56:49.205Z,377.3077
2023-04-21T07:57:50.821Z,335.0769
2023-04-21T07:58:52.514Z,246.7692
2023-04-21T07:59:54.579Z,258.4615
2023-04-21T08:00:55.778Z,282.2308
2023-04-21T08:01:57.454Z,293.1538
2023-04-21T08:02:59.209Z,302.5385
2023-04-21T08:04:01.290Z,315.0000
2023-04-21T08:05:02.527Z,320.0000
2023-04-21T08:06:04.218Z,328.1538
2023-04-21T08:07:06.029Z,331.7692
2023-04-21T08:08:07.388Z,337.0769
2023-04-21T08:09:09.060Z,340.5385
2023-04-21T08:10:10.679Z,343.4615
2023-04-21T08:11:12.303Z,336.6923
2023-04-21T08:12:13.907Z,257.2308
2023-04-21T08:13:15.642Z,259.6923
2023-04-21T08:14:17.367Z,276.7692
2023-04-21T08:15:19.007Z,287.6154
2023-04-21T08:16:20.713Z,291.7692
2023-04-21T08:17:22.235Z,303.4615
2023-04-21T08:18:23.915Z,303.3846
2023-04-21T08:19:25.587Z,314.1538
2023-04-21T08:20:27.194Z,323.2308
2023-04-21T08:21:31.229Z,326.0000
2023-04-21T08:22:30.539Z,331.0769
2023-04-21T08:23:32.538Z,335.6154
2023-04-21T08:24:34.128Z,339.9231
2023-04-21T08:25:35.514Z,333.5385
2023-04-21T08:26:37.080Z,305.8462
2023-04-21T08:27:38.768Z,290.5385
2023-04-21T08:28:40.358Z,283.9231
2023-04-21T08:29:42.040Z,277.5385
2023-04-21T08:30:43.674Z,271.8462
2023-04-21T08:31:45.579Z,270.0769
2023-04-21T08:32:47.000Z,265.8462
2023-04-21T08:34:00.526Z,264.5385
2023-04-21T08:34:50.307Z,259.0769
2023-04-21T08:36:03.980Z,268.1538
2023-04-21T08:36:54.114Z,277.4615
2023-04-21T08:37:55.187Z,278.5385
2023-04-21T08:38:56.848Z,289.0769
2023-04-21T08:39:58.587Z,296.8462
2023-04-21T08:41:00.184Z,299.3846
2023-04-21T08:42:02.112Z,303.5385
2023-04-21T08:43:03.435Z,286.8462
2023-04-21T08:44:05.130Z,275.0000
2023-04-21T08:45:07.545Z,243.6923
2023-04-21T08:46:08.519Z,245.7692
2023-04-21T08:47:10.092Z,251.0000
2023-04-21T08:48:11.752Z,261.1538
2023-04-21T08:49:14.032Z,271.0000
2023-04-21T08:50:15.065Z,276.2308
2023-04-21T08:51:16.670Z,280.3077
2023-04-21T08:52:18.289Z,291.3846
2023-04-21T08:53:19.876Z,286.5385
2023-04-21T08:54:21.561Z,266.6154
2023-04-21T08:55:23.532Z,223.2308
2023-04-21T08:56:24.923Z,209.0769
2023-04-21T08:57:26.527Z,218.5385
2023-04-21T08:58:28.191Z,233.0769
2023-04-21T08:59:29.800Z,238.0000
2023-04-21T09:00:31.452Z,244.0769
2023-04-21T09:01:33.083Z,247.3077
2023-04-21T09:02:34.839Z,259.2308
2023-04-21T09:03:36.550Z,259.3846
2023-04-21T09:04:38.270Z,266.4615
2023-04-21T09:05:42.904Z,273.2308
2023-04-21T09:06:41.388Z,280.3846
2023-04-21T09:07:42.943Z,286.4615
2023-04-21T09:08:44.670Z,289.0000
2023-04-21T09:09:46.290Z,294.4615
2023-04-21T09:10:47.967Z,303.0000
2023-04-21T09:11:49.600Z,305.3077
2023-04-21T09:12:51.207Z,312.6154
2023-04-21T09:13:52.988Z,314.3077
2023-04-21T09:14:54.494Z,316.9231
2023-04-21T09:15:56.500Z,314.0769
2023-04-21T09:16:58.034Z,325.7692
2023-04-21T09:17:59.460Z,328.0000
2023-04-21T09:19:01.076Z,329.1538
2023-04-21T09:20:02.765Z,330.7692
2023-04-21T09:21:04.372Z,333.0769
2023-04-21T09:22:07.046Z,335.6923
2023-04-21T09:23:07.828Z,337.0769
2023-04-21T09:24:09.380Z,341.2308
2023-04-21T09:25:10.986Z,340.4615
2023-04-21T09:26:12.651Z,348.0769
2023-04-21T09:27:14.285Z,346.3846
2023-04-21T09:28:16.160Z,349.3077
2023-04-21T09:29:17.803Z,351.4615
2023-04-21T09:30:19.368Z,354.8462
2023-04-21T09:31:20.988Z,352.6154
2023-04-21T09:32:22.609Z,353.7692
2023-04-21T09:33:32.375Z,354.3846
2023-04-21T09:34:26.534Z,357.6923
2023-04-21T09:35:27.468Z,361.9231
2023-04-21T09:36:30.171Z,362.1538
2023-04-21T09:37:31.569Z,361.0769
2023-04-21T09:38:32.463Z,360.6923
2023-04-21T09:39:45.661Z,362.6154
2023-04-21T09:40:35.790Z,365.9231
2023-04-21T09:41:37.960Z,366.6923
2023-04-21T09:42:41.433Z,369.1538
2023-04-21T09:43:41.568Z,374.4615
2023-04-21T09:44:53.281Z,373.7692
2023-04-21T09:45:44.055Z,376.1538
2023-04-21T09:46:46.821Z,371.9231
2023-04-21T09:47:48.080Z,376.6923
2023-04-21T09:48:49.005Z,382.3077
2023-04-21T09:49:50.593Z,380.8462
2023-04-21T09:51:22.966Z,387.9231
2023-04-21T09:52:14.333Z,386.0769
2023-04-21T09:52:56.031Z,384.5385
2023-04-21T09:53:57.271Z,387.9231
2023-04-21T09:54:58.973Z,392.8462
2023-04-21T09:56:00.606Z,394.8462
2023-04-21T09:57:02.290Z,394.0000
2023-04-21T09:58:03.840Z,393.0769
2023-04-21T09:59:05.596Z,400.8462
2023-04-21T10:00:07.246Z,408.2308
2023-04-21T10:01:08.892Z,416.6154
2023-04-21T10:02:10.595Z,418.3846
2023-04-21T10:03:12.381Z,423.2308
2023-04-21T10:04:13.862Z,430.3846
2023-04-21T10:05:15.654Z,435.7692
2023-04-21T10:06:16.975Z,425.6923
2023-04-21T10:07:18.647Z,416.6154
2023-04-21T10:08:20.281Z,397.6923
2023-04-21T10:09:21.972Z,380.0000
2023-04-21T10:10:24.163Z,357.9231
2023-04-21T10:11:25.213Z,350.9231
2023-04-21T10:12:26.923Z,336.4615
2023-04-21T10:13:28.588Z,313.6154
2023-04-21T10:14:30.281Z,303.1538
2023-04-21T10:15:31.855Z,304.1538
2023-04-21T10:16:33.574Z,295.0769
2023-04-21T10:17:35.104Z,306.1538
2023-04-21T10:18:36.777Z,317.9231
2023-04-21T10:19:38.430Z,317.4615
2023-04-21T10:20:40.183Z,320.2308
2023-04-21T10:21:41.728Z,315.5385
2023-04-21T10:22:43.316Z,299.0000
2023-04-21T10:23:45.011Z,282.7692
2023-04-21T10:24:46.704Z,273.9231
2023-04-21T10:25:48.300Z,270.9231
2023-04-21T10:26:50.326Z,270.8462
2023-04-21T10:27:51.514Z,274.3846
2023-04-21T10:28:53.224Z,286.0769
2023-04-21T10:29:57.075Z,287.2308
2023-04-21T10:30:56.622Z,286.7692
2023-04-21T10:31:58.241Z,262.0769
2023-04-21T10:32:59.876Z,251.1538
2023-04-21T10:34:01.450Z,246.9231
2023-04-21T10:35:03.618Z,253.9231
2023-04-21T10:36:05.195Z,252.2308
2023-04-21T10:37:06.330Z,253.8462
2023-04-21T10:38:08.223Z,247.4615
2023-04-21T10:39:09.670Z,231.0769
2023-04-21T10:40:11.399Z,236.4615
2023-04-21T10:41:12.985Z,244.6923
2023-04-21T10:42:14.651Z,250.3077
2023-04-21T10:43:16.248Z,259.4615
2023-04-21T10:44:18.043Z,272.4615
2023-04-21T10:45:19.599Z,277.2308
2023-04-21T10:46:21.233Z,285.2308
2023-04-21T10:47:23.675Z,272.2308
2023-04-21T10:48:24.508Z,243.3077
2023-04-21T10:49:26.147Z,242.5385
2023-04-21T10:50:27.856Z,259.3077
2023-04-21T10:51:29.437Z,265.0769
2023-04-21T10:52:31.044Z,277.0000
2023-04-21T10:53:32.736Z,273.4615
2023-04-21T10:54:34.340Z,265.8462
2023-04-21T10:55:36.066Z,263.0769
2023-04-21T10:56:38.772Z,263.9231
2023-04-21T10:57:39.304Z,247.9231
2023-04-21T10:58:40.924Z,238.4615
2023-04-21T10:59:42.606Z,247.6923
2023-04-21T11:00:44.386Z,239.6154
2023-04-21T11:01:46.191Z,235.9231
2023-04-21T11:02:47.739Z,237.8462
2023-04-21T11:03:49.355Z,245.0000
2023-04-21T11:04:51.245Z,250.7692
2023-04-21T11:05:52.524Z,263.1538
2023-04-21T11:06:54.246Z,261.6923
2023-04-21T11:07:55.769Z,262.4615
2023-04-21T11:08:57.448Z,273.3077
2023-04-21T11:09:59.087Z,258.1538
2023-04-21T11:11:00.735Z,257.8462
2023-04-21T11:12:02.456Z,245.0769
2023-04-21T11:13:03.974Z,247.6154
2023-04-21T11:14:05.652Z,256.3077
2023-04-21T11:15:07.336Z,259.0000
2023-04-21T11:16:09.058Z,274.0000
2023-04-21T11:17:10.734Z,269.1538
2023-04-21T11:18:12.248Z,262.0000
2023-04-21T11:19:13.886Z,255.2308
2023-04-21T11:20:15.561Z,257.7692
2023-04-21T11:21:17.237Z,258.1538
2023-04-21T11:22:18.940Z,266.6154
2023-04-21T11:23:20.509Z,273.4615
2023-04-21T11:24:22.130Z,280.7692
2023-04-21T11:25:23.674Z,275.3846
2023-04-21T11:26:26.106Z,269.2308
2023-04-21T11:27:27.042Z,256.5385
2023-04-21T11:28:28.721Z,268.1538
2023-04-21T11:29:30.235Z,268.0000
2023-04-21T11:30:31.960Z,263.1538
2023-04-21T11:31:33.605Z,266.1538
2023-04-21T11:32:38.156Z,264.0000
2023-04-21T11:33:37.081Z,261.7692
2023-04-21T11:34:38.632Z,252.3846
2023-04-21T11:35:40.180Z,254.6923
2023-04-21T11:36:42.526Z,258.5385
2023-04-21T11:37:43.582Z,267.1538
2023-04-21T11:38:45.189Z,271.9231
2023-04-21T11:39:47.512Z,282.3846
2023-04-21T11:40:48.376Z,270.0769
2023-04-21T11:41:50.066Z,258.3077
2023-04-21T11:42:51.700Z,258.6154
2023-04-21T11:43:53.430Z,261.4615
2023-04-21T11:44:55.025Z,260.9231
2023-04-21T11:45:56.765Z,266.8462
2023-04-21T11:47:00.281Z,269.3846
2023-04-21T11:47:59.994Z,273.5385
2023-04-21T11:49:01.767Z,250.6923
2023-04-21T11:50:03.355Z,251.5385
2023-04-21T11:51:05.620Z,254.5385
2023-04-21T11:52:06.633Z,257.5385
2023-04-21T11:53:08.210Z,264.3846
2023-04-21T11:54:09.949Z,271.5385
2023-04-21T11:55:11.561Z,270.3077
2023-04-21T11:56:13.190Z,271.1538
2023-04-21T11:57:14.785Z,264.0000
2023-04-21T11:58:16.540Z,254.5385
2023-04-21T11:59:18.121Z,256.8462
2023-04-21T12:00:19.791Z,263.4615
2023-04-21T12:01:21.417Z,266.6154
2023-04-21T12:02:23.119Z,265.7692
2023-04-21T12:03:24.757Z,268.3846
2023-04-21T12:04:27.312Z,276.6923
2023-04-21T12:05:28.064Z,284.4615
2023-04-21T12:06:29.661Z,283.3077
2023-04-21T12:07:31.318Z,249.6154
2023-04-21T12:08:32.926Z,231.3077
2023-04-21T12:09:34.637Z,248.2308
2023-04-21T12:10:36.297Z,267.6154
2023-04-21T12:11:37.917Z,275.6154